sensor_id;sensor_type;location;lat;lon;timestamp;pressure;altitude;pressure_sealevel;temperature;humidity
30516;BME280;17297;54.022;10.760;2023-04-05T00:00:51;102596.97;;;5.46;49.22
30516;BME280;17297;54.022;10.760;2023-04-05T00:03:18;102581.06;;;5.45;49.55
30516;BME280;17297;54.022;10.760;2023-04-05T00:05:44;102584.59;;;5.45;49.32
30516;BME280;17297;54.022;10.760;2023-04-05T00:08:10;102581.94;;;5.45;49.27
30516;BME280;17297;54.022;10.760;2023-04-05T00:10:42;102581.94;;;5.45;49.40
30516;BME280;17297;54.022;10.760;2023-04-05T00:13:08;102586.31;;;5.46;49.45
30516;BME280;17297;54.022;10.760;2023-04-05T00:15:33;102584.47;;;5.47;49.57
30516;BME280;17297;54.022;10.760;2023-04-05T00:17:59;102588.97;;;5.46;49.40
30516;BME280;17297;54.022;10.760;2023-04-05T00:20:27;102595.16;;;5.47;49.51
30516;BME280;17297;54.022;10.760;2023-04-05T00:22:53;102579.13;;;5.47;49.47
30516;BME280;17297;54.022;10.760;2023-04-05T00:25:18;102583.50;;;5.48;49.56
30516;BME280;17297;54.022;10.760;2023-04-05T00:27:45;102587.91;;;5.49;49.51
30516;BME280;17297;54.022;10.760;2023-04-05T00:30:11;102586.06;;;5.49;49.61
30516;BME280;17297;54.022;10.760;2023-04-05T00:32:36;102580.59;;;5.51;49.63
30516;BME280;17297;54.022;10.760;2023-04-05T00:35:02;102582.19;;;5.53;49.85
30516;BME280;17297;54.022;10.760;2023-04-05T00:37:27;102580.28;;;5.55;49.86
30516;BME280;17297;54.022;10.760;2023-04-05T00:39:53;102580.16;;;5.57;49.55
30516;BME280;17297;54.022;10.760;2023-04-05T00:42:19;102574.69;;;5.59;49.82
30516;BME280;17297;54.022;10.760;2023-04-05T00:44:44;102579.06;;;5.60;49.79
30516;BME280;17297;54.022;10.760;2023-04-05T00:47:10;102574.47;;;5.62;49.88
30516;BME280;17297;54.022;10.760;2023-04-05T00:49:35;102575.19;;;5.64;49.81
30516;BME280;17297;54.022;10.760;2023-04-05T00:52:02;102564.41;;;5.65;49.78
30516;BME280;17297;54.022;10.760;2023-04-05T00:54:28;102563.31;;;5.68;49.75
30516;BME280;17297;54.022;10.760;2023-04-05T00:56:55;102559.56;;;5.70;50.00
30516;BME280;17297;54.022;10.760;2023-04-05T00:59:20;102566.47;;;5.73;49.85
30516;BME280;17297;54.022;10.760;2023-04-05T01:01:49;102554.84;;;5.74;49.91
30516;BME280;17297;54.022;10.760;2023-04-05T01:04:27;102559.22;;;5.75;49.64
30516;BME280;17297;54.022;10.760;2023-04-05T01:07:06;102559.81;;;5.78;49.80
30516;BME280;17297;54.022;10.760;2023-04-05T01:09:44;102562.38;;;5.80;49.88
30516;BME280;17297;54.022;10.760;2023-04-05T01:12:16;102548.91;;;5.82;49.69
30516;BME280;17297;54.022;10.760;2023-04-05T01:14:49;102542.63;;;5.83;49.73
30516;BME280;17297;54.022;10.760;2023-04-05T01:17:19;102545.91;;;5.86;49.74
30516;BME280;17297;54.022;10.760;2023-04-05T01:19:49;102549.41;;;5.87;49.83
30516;BME280;17297;54.022;10.760;2023-04-05T01:33:43;102539.34;;;5.90;49.66
30516;BME280;17297;54.022;10.760;2023-04-05T01:36:24;102533.88;;;5.92;49.74
30516;BME280;17297;54.022;10.760;2023-04-05T01:38:53;102539.97;;;5.94;49.57
30516;BME280;17297;54.022;10.760;2023-04-05T01:41:20;102533.78;;;5.93;49.57
30516;BME280;17297;54.022;10.760;2023-04-05T01:43:48;102527.59;;;5.93;49.69
30516;BME280;17297;54.022;10.760;2023-04-05T01:46:13;102524.69;;;5.96;49.69
30516;BME280;17297;54.022;10.760;2023-04-05T01:48:40;102522.13;;;5.94;49.77
30516;BME280;17297;54.022;10.760;2023-04-05T01:51:05;102526.53;;;5.95;49.77
30516;BME280;17297;54.022;10.760;2023-04-05T01:53:30;102520.19;;;5.96;49.75
30516;BME280;17297;54.022;10.760;2023-04-05T01:56:00;102509.50;;;5.96;49.75
30516;BME280;17297;54.022;10.760;2023-04-05T01:58:26;102505.00;;;5.97;49.55
30516;BME280;17297;54.022;10.760;2023-04-05T02:00:55;102514.72;;;5.98;49.49
30516;BME280;17297;54.022;10.760;2023-04-05T02:03:23;102501.25;;;5.99;49.67
30516;BME280;17297;54.022;10.760;2023-04-05T02:05:48;102510.13;;;6.00;49.65
30516;BME280;17297;54.022;10.760;2023-04-05T02:08:13;102502.00;;;6.01;49.48
30516;BME280;17297;54.022;10.760;2023-04-05T02:10:40;102503.69;;;6.03;49.64
30516;BME280;17297;54.022;10.760;2023-04-05T02:13:05;102494.69;;;6.04;49.59
30516;BME280;17297;54.022;10.760;2023-04-05T02:15:31;102494.81;;;6.02;49.39
30516;BME280;17297;54.022;10.760;2023-04-05T02:17:58;102494.81;;;6.02;49.38
30516;BME280;17297;54.022;10.760;2023-04-05T02:20:26;102492.03;;;6.04;49.40
30516;BME280;17297;54.022;10.760;2023-04-05T02:22:53;102495.66;;;6.03;49.46
30516;BME280;17297;54.022;10.760;2023-04-05T02:25:18;102494.69;;;6.04;49.25
30516;BME280;17297;54.022;10.760;2023-04-05T02:27:44;102492.16;;;6.02;49.44
30516;BME280;17297;54.022;10.760;2023-04-05T02:30:09;102492.16;;;6.02;49.50
30516;BME280;17297;54.022;10.760;2023-04-05T02:32:37;102487.66;;;6.03;49.19
30516;BME280;17297;54.022;10.760;2023-04-05T02:35:03;102485.09;;;6.01;49.39
30516;BME280;17297;54.022;10.760;2023-04-05T02:37:29;102488.63;;;6.01;49.51
30516;BME280;17297;54.022;10.760;2023-04-05T02:39:54;102483.28;;;6.01;49.18
30516;BME280;17297;54.022;10.760;2023-04-05T02:42:19;102484.25;;;6.00;49.51
30516;BME280;17297;54.022;10.760;2023-04-05T02:44:48;102481.56;;;6.00;49.30
30516;BME280;17297;54.022;10.760;2023-04-05T02:47:14;102482.56;;;5.99;49.46
30516;BME280;17297;54.022;10.760;2023-04-05T02:49:49;102476.38;;;5.99;49.26
30516;BME280;17297;54.022;10.760;2023-04-05T02:52:15;102471.97;;;5.98;49.43
30516;BME280;17297;54.022;10.760;2023-04-05T02:54:43;102475.63;;;5.97;49.33
30516;BME280;17297;54.022;10.760;2023-04-05T02:57:12;102480.97;;;5.97;49.42
30516;BME280;17297;54.022;10.760;2023-04-05T02:59:47;102479.13;;;5.97;49.47
30516;BME280;17297;54.022;10.760;2023-04-05T03:02:13;102482.78;;;5.96;49.42
30516;BME280;17297;54.022;10.760;2023-04-05T03:04:39;102473.94;;;5.96;49.42
30516;BME280;17297;54.022;10.760;2023-04-05T03:07:05;102476.59;;;5.96;49.56
30516;BME280;17297;54.022;10.760;2023-04-05T03:09:37;102472.22;;;5.95;49.38
30516;BME280;17297;54.022;10.760;2023-04-05T03:12:06;102471.38;;;5.94;49.48
30516;BME280;17297;54.022;10.760;2023-04-05T03:14:37;102463.50;;;5.93;49.69
30516;BME280;17297;54.022;10.760;2023-04-05T03:17:02;102467.97;;;5.92;49.63
30516;BME280;17297;54.022;10.760;2023-04-05T03:19:34;102462.72;;;5.91;49.64
30516;BME280;17297;54.022;10.760;2023-04-05T03:22:09;102456.66;;;5.89;49.50
30516;BME280;17297;54.022;10.760;2023-04-05T03:24:36;102452.41;;;5.86;49.77
30516;BME280;17297;54.022;10.760;2023-04-05T03:27:04;102460.66;;;5.83;49.49
30516;BME280;17297;54.022;10.760;2023-04-05T03:29:37;102448.41;;;5.81;49.48
30516;BME280;17297;54.022;10.760;2023-04-05T03:32:10;102461.13;;;5.77;49.37
30516;BME280;17297;54.022;10.760;2023-04-05T03:34:42;102454.22;;;5.74;49.39
30516;BME280;17297;54.022;10.760;2023-04-05T03:37:09;102449.13;;;5.71;49.65
30516;BME280;17297;54.022;10.760;2023-04-05T03:39:41;102449.34;;;5.68;49.61
30516;BME280;17297;54.022;10.760;2023-04-05T03:42:07;102461.13;;;5.66;49.66
30516;BME280;17297;54.022;10.760;2023-04-05T03:44:32;102452.50;;;5.62;49.62
30516;BME280;17297;54.022;10.760;2023-04-05T03:46:57;102458.91;;;5.60;49.76
30516;BME280;17297;54.022;10.760;2023-04-05T03:49:23;102460.00;;;5.57;49.93
30516;BME280;17297;54.022;10.760;2023-04-05T03:51:48;102459.38;;;5.53;49.89
30516;BME280;17297;54.022;10.760;2023-04-05T03:54:16;102449.78;;;5.51;49.72
30516;BME280;17297;54.022;10.760;2023-04-05T03:56:43;102444.69;;;5.48;49.88
30516;BME280;17297;54.022;10.760;2023-04-05T03:59:14;102446.66;;;5.46;49.81
30516;BME280;17297;54.022;10.760;2023-04-05T04:01:40;102454.75;;;5.44;50.15
30516;BME280;17297;54.022;10.760;2023-04-05T04:04:06;102445.06;;;5.43;50.09
30516;BME280;17297;54.022;10.760;2023-04-05T04:06:32;102435.47;;;5.41;49.93
30516;BME280;17297;54.022;10.760;2023-04-05T04:08:57;102443.59;;;5.39;50.04
30516;BME280;17297;54.022;10.760;2023-04-05T04:11:23;102455.13;;;5.40;50.13
30516;BME280;17297;54.022;10.760;2023-04-05T04:13:48;102448.19;;;5.37;50.18
30516;BME280;17297;54.022;10.760;2023-04-05T04:16:21;102450.97;;;5.36;50.09
30516;BME280;17297;54.022;10.760;2023-04-05T04:19:17;102449.50;;;5.31;50.04
30516;BME280;17297;54.022;10.760;2023-04-05T04:22:01;102444.31;;;5.30;50.09
30516;BME280;17297;54.022;10.760;2023-04-05T04:25:05;102435.66;;;5.26;50.20
30516;BME280;17297;54.022;10.760;2023-04-05T04:27:52;102443.94;;;5.23;50.07
30516;BME280;17297;54.022;10.760;2023-04-05T04:30:32;102441.50;;;5.20;50.33
30516;BME280;17297;54.022;10.760;2023-04-05T04:33:25;102449.59;;;5.19;50.01
30516;BME280;17297;54.022;10.760;2023-04-05T04:36:07;102434.66;;;5.16;50.30
30516;BME280;17297;54.022;10.760;2023-04-05T04:38:56;102443.66;;;5.15;50.18
30516;BME280;17297;54.022;10.760;2023-04-05T04:41:25;102441.09;;;5.14;50.22
30516;BME280;17297;54.022;10.760;2023-04-05T04:44:07;102437.47;;;5.15;50.35
30516;BME280;17297;54.022;10.760;2023-04-05T04:46:38;102439.41;;;5.13;50.34
30516;BME280;17297;54.022;10.760;2023-04-05T04:49:17;102435.88;;;5.12;50.27
30516;BME280;17297;54.022;10.760;2023-04-05T04:51:46;102440.25;;;5.13;50.51
30516;BME280;17297;54.022;10.760;2023-04-05T04:54:12;102434.91;;;5.13;50.37
30516;BME280;17297;54.022;10.760;2023-04-05T04:56:37;102440.25;;;5.13;50.45
30516;BME280;17297;54.022;10.760;2023-04-05T04:59:06;102434.81;;;5.15;50.50
30516;BME280;17297;54.022;10.760;2023-04-05T05:01:31;102436.50;;;5.16;50.65
30516;BME280;17297;54.022;10.760;2023-04-05T05:03:58;102440.84;;;5.17;50.52
30516;BME280;17297;54.022;10.760;2023-04-05T05:06:31;102435.44;;;5.29;50.62
30516;BME280;17297;54.022;10.760;2023-04-05T05:08:56;102435.88;;;5.59;50.85
30516;BME280;17297;54.022;10.760;2023-04-05T05:11:23;102435.66;;;6.07;50.91
30516;BME280;17297;54.022;10.760;2023-04-05T05:13:49;102426.13;;;6.59;50.73
30516;BME280;17297;54.022;10.760;2023-04-05T05:16:18;102429.66;;;7.12;50.72
30516;BME280;17297;54.022;10.760;2023-04-05T05:18:45;102437.25;;;7.49;50.40
30516;BME280;17297;54.022;10.760;2023-04-05T05:21:12;102435.34;;;7.61;50.30
30516;BME280;17297;54.022;10.760;2023-04-05T05:23:38;102429.84;;;7.62;50.22
30516;BME280;17297;54.022;10.760;2023-04-05T05:26:03;102434.09;;;7.65;50.15
30516;BME280;17297;54.022;10.760;2023-04-05T05:28:28;102434.03;;;7.76;49.93
30516;BME280;17297;54.022;10.760;2023-04-05T05:30:54;102427.72;;;7.87;49.90
30516;BME280;17297;54.022;10.760;2023-04-05T05:33:20;102434.91;;;7.86;49.86
30516;BME280;17297;54.022;10.760;2023-04-05T05:35:49;102420.94;;;7.83;49.85
30516;BME280;17297;54.022;10.760;2023-04-05T05:38:18;102421.78;;;7.83;49.76
30516;BME280;17297;54.022;10.760;2023-04-05T05:40:43;102411.81;;;7.95;49.87
30516;BME280;17297;54.022;10.760;2023-04-05T05:43:09;102410.47;;;8.10;49.73
30516;BME280;17297;54.022;10.760;2023-04-05T05:45:35;102412.75;;;8.34;49.76
30516;BME280;17297;54.022;10.760;2023-04-05T05:48:00;102403.53;;;8.68;49.79
30516;BME280;17297;54.022;10.760;2023-04-05T05:50:26;102398.31;;;8.95;49.50
30516;BME280;17297;54.022;10.760;2023-04-05T05:52:51;102397.00;;;9.29;49.46
30516;BME280;17297;54.022;10.760;2023-04-05T05:55:17;102394.72;;;9.81;49.37
30516;BME280;17297;54.022;10.760;2023-04-05T05:57:42;102386.31;;;10.49;49.04
30516;BME280;17297;54.022;10.760;2023-04-05T06:00:08;102385.03;;;11.15;48.83
30516;BME280;17297;54.022;10.760;2023-04-05T06:02:36;102379.97;;;11.64;48.43
30516;BME280;17297;54.022;10.760;2023-04-05T06:05:02;102378.47;;;11.95;47.89
30516;BME280;17297;54.022;10.760;2023-04-05T06:07:28;102376.03;;;12.27;47.63
30516;BME280;17297;54.022;10.760;2023-04-05T06:09:53;102373.09;;;12.62;47.39
30516;BME280;17297;54.022;10.760;2023-04-05T06:12:22;102374.59;;;12.98;46.93
30516;BME280;17297;54.022;10.760;2023-04-05T06:14:48;102369.53;;;13.35;46.62
30516;BME280;17297;54.022;10.760;2023-04-05T06:17:13;102372.78;;;13.78;46.29
30516;BME280;17297;54.022;10.760;2023-04-05T06:19:38;102377.06;;;14.12;46.08
30516;BME280;17297;54.022;10.760;2023-04-05T06:22:03;102375.56;;;14.32;45.62
30516;BME280;17297;54.022;10.760;2023-04-05T06:24:29;102376.56;;;14.40;45.31
30516;BME280;17297;54.022;10.760;2023-04-05T06:26:57;102373.31;;;14.44;45.04
30516;BME280;17297;54.022;10.760;2023-04-05T06:29:22;102370.69;;;14.59;44.90
30516;BME280;17297;54.022;10.760;2023-04-05T06:31:47;102376.81;;;14.99;44.84
30516;BME280;17297;54.022;10.760;2023-04-05T06:34:13;102375.13;;;15.36;44.65
30516;BME280;17297;54.022;10.760;2023-04-05T06:36:38;102381.50;;;15.58;44.34
30516;BME280;17297;54.022;10.760;2023-04-05T06:39:04;102377.75;;;15.59;44.07
30516;BME280;17297;54.022;10.760;2023-04-05T06:41:29;102382.50;;;15.42;43.70
30516;BME280;17297;54.022;10.760;2023-04-05T06:43:55;102381.63;;;15.12;43.80
30516;BME280;17297;54.022;10.760;2023-04-05T06:46:20;102382.34;;;14.83;44.00
30516;BME280;17297;54.022;10.760;2023-04-05T06:48:46;102386.63;;;14.54;43.96
30516;BME280;17297;54.022;10.760;2023-04-05T06:51:12;102375.16;;;14.21;44.06
30516;BME280;17297;54.022;10.760;2023-04-05T06:53:38;102381.72;;;13.87;44.15
30516;BME280;17297;54.022;10.760;2023-04-05T06:56:03;102381.66;;;13.56;44.35
30516;BME280;17297;54.022;10.760;2023-04-05T06:58:29;102379.34;;;13.28;44.60
30516;BME280;17297;54.022;10.760;2023-04-05T07:00:56;102383.91;;;13.03;44.78
30516;BME280;17297;54.022;10.760;2023-04-05T07:03:21;102389.44;;;12.77;45.03
30516;BME280;17297;54.022;10.760;2023-04-05T07:05:54;102390.44;;;12.52;45.08
30516;BME280;17297;54.022;10.760;2023-04-05T07:08:21;102386.00;;;12.26;45.45
30516;BME280;17297;54.022;10.760;2023-04-05T07:10:47;102383.06;;;12.03;45.66
30516;BME280;17297;54.022;10.760;2023-04-05T07:13:13;102386.81;;;11.84;45.81
30516;BME280;17297;54.022;10.760;2023-04-05T07:15:38;102386.19;;;11.64;46.01
30516;BME280;17297;54.022;10.760;2023-04-05T07:18:04;102379.03;;;11.47;46.08
30516;BME280;17297;54.022;10.760;2023-04-05T07:20:32;102382.16;;;11.34;46.21
30516;BME280;17297;54.022;10.760;2023-04-05T07:22:57;102390.31;;;11.24;46.41
30516;BME280;17297;54.022;10.760;2023-04-05T07:25:23;102382.19;;;11.16;46.72
30516;BME280;17297;54.022;10.760;2023-04-05T07:27:49;102374.56;;;11.12;46.70
30516;BME280;17297;54.022;10.760;2023-04-05T07:30:14;102375.91;;;11.07;46.71
30516;BME280;17297;54.022;10.760;2023-04-05T07:32:40;102380.75;;;11.04;46.99
30516;BME280;17297;54.022;10.760;2023-04-05T07:35:05;102372.16;;;11.00;46.93
30516;BME280;17297;54.022;10.760;2023-04-05T07:37:31;102373.81;;;11.01;47.09
30516;BME280;17297;54.022;10.760;2023-04-05T07:39:56;102370.28;;;11.01;46.90
30516;BME280;17297;54.022;10.760;2023-04-05T07:42:22;102371.97;;;11.02;47.05
30516;BME280;17297;54.022;10.760;2023-04-05T07:44:48;102368.63;;;11.00;47.17
30516;BME280;17297;54.022;10.760;2023-04-05T07:47:13;102371.31;;;11.00;47.07
30516;BME280;17297;54.022;10.760;2023-04-05T07:49:39;102373.31;;;10.98;47.11
30516;BME280;17297;54.022;10.760;2023-04-05T07:52:04;102382.38;;;10.97;47.13
30516;BME280;17297;54.022;10.760;2023-04-05T07:54:31;102378.16;;;10.94;47.03
30516;BME280;17297;54.022;10.760;2023-04-05T07:56:57;102380.16;;;10.92;47.24
30516;BME280;17297;54.022;10.760;2023-04-05T07:59:23;102381.47;;;10.88;47.40
30516;BME280;17297;54.022;10.760;2023-04-05T08:01:48;102376.41;;;10.85;47.31
30516;BME280;17297;54.022;10.760;2023-04-05T08:04:13;102375.69;;;10.83;47.53
30516;BME280;17297;54.022;10.760;2023-04-05T08:06:39;102379.22;;;10.83;47.65
30516;BME280;17297;54.022;10.760;2023-04-05T08:09:05;102375.56;;;10.84;47.79
30516;BME280;17297;54.022;10.760;2023-04-05T08:11:32;102375.38;;;10.86;47.90
30516;BME280;17297;54.022;10.760;2023-04-05T08:13:58;102378.78;;;10.88;47.82
30516;BME280;17297;54.022;10.760;2023-04-05T08:16:24;102376.75;;;10.90;47.63
30516;BME280;17297;54.022;10.760;2023-04-05T08:18:49;102373.75;;;10.93;47.68
30516;BME280;17297;54.022;10.760;2023-04-05T08:21:14;102379.00;;;10.95;47.68
30516;BME280;17297;54.022;10.760;2023-04-05T08:23:40;102384.38;;;10.95;47.77
30516;BME280;17297;54.022;10.760;2023-04-05T08:26:05;102383.38;;;10.96;47.84
30516;BME280;17297;54.022;10.760;2023-04-05T08:28:32;102373.09;;;10.91;47.90
30516;BME280;17297;54.022;10.760;2023-04-05T08:30:57;102369.56;;;10.91;47.94
30516;BME280;17297;54.022;10.760;2023-04-05T08:33:24;102371.63;;;10.97;48.00
30516;BME280;17297;54.022;10.760;2023-04-05T08:35:50;102373.53;;;11.04;47.92
30516;BME280;17297;54.022;10.760;2023-04-05T08:38:19;102371.72;;;11.13;48.17
30516;BME280;17297;54.022;10.760;2023-04-05T08:40:45;102373.94;;;11.18;48.15
30516;BME280;17297;54.022;10.760;2023-04-05T08:45:56;102370.69;;;11.32;48.05
30516;BME280;17297;54.022;10.760;2023-04-05T08:48:23;102375.44;;;11.38;47.94
30516;BME280;17297;54.022;10.760;2023-04-05T08:50:52;102370.44;;;11.43;47.99
30516;BME280;17297;54.022;10.760;2023-04-05T08:53:18;102365.38;;;11.48;48.09
30516;BME280;17297;54.022;10.760;2023-04-05T08:55:48;102362.38;;;11.51;47.80
30516;BME280;17297;54.022;10.760;2023-04-05T08:58:15;102365.44;;;11.56;47.95
30516;BME280;17297;54.022;10.760;2023-04-05T09:00:42;102357.03;;;11.60;48.12
30516;BME280;17297;54.022;10.760;2023-04-05T09:03:12;102361.94;;;11.64;47.96
30516;BME280;17297;54.022;10.760;2023-04-05T09:05:40;102352.88;;;11.65;47.76
30516;BME280;17297;54.022;10.760;2023-04-05T09:08:08;102357.25;;;11.66;47.90
30516;BME280;17297;54.022;10.760;2023-04-05T09:10:33;102353.38;;;11.69;47.94
30516;BME280;17297;54.022;10.760;2023-04-05T09:12:59;102344.97;;;11.72;47.72
30516;BME280;17297;54.022;10.760;2023-04-05T09:15:25;102341.97;;;11.75;47.63
30516;BME280;17297;54.022;10.760;2023-04-05T09:17:53;102344.47;;;11.76;47.73
30516;BME280;17297;54.022;10.760;2023-04-05T09:20:18;102342.28;;;11.80;47.62
30516;BME280;17297;54.022;10.760;2023-04-05T09:22:45;102340.28;;;11.82;47.80
30516;BME280;17297;54.022;10.760;2023-04-05T09:27:58;102337.81;;;11.89;47.38
30516;BME280;17297;54.022;10.760;2023-04-05T09:30:25;102340.19;;;11.92;47.24
30516;BME280;17297;54.022;10.760;2023-04-05T09:32:51;102337.81;;;11.89;46.91
30516;BME280;17297;54.022;10.760;2023-04-05T09:35:30;102338.00;;;11.87;46.98
30516;BME280;17297;54.022;10.760;2023-04-05T09:37:58;102335.81;;;11.91;47.20
30516;BME280;17297;54.022;10.760;2023-04-05T09:43:12;102332.31;;;12.07;47.31
30516;BME280;17297;54.022;10.760;2023-04-05T09:45:39;102332.84;;;12.10;47.19
30516;BME280;17297;54.022;10.760;2023-04-05T09:48:06;102329.94;;;12.12;46.81
30516;BME280;17297;54.022;10.760;2023-04-05T09:50:31;102334.34;;;12.13;46.86
30516;BME280;17297;54.022;10.760;2023-04-05T09:55:32;102324.91;;;12.09;46.66
30516;BME280;17297;54.022;10.760;2023-04-05T09:57:57;102315.97;;;12.08;46.48
30516;BME280;17297;54.022;10.760;2023-04-05T10:00:23;102314.97;;;12.09;46.80
30516;BME280;17297;54.022;10.760;2023-04-05T10:02:52;102314.63;;;12.12;46.79
30516;BME280;17297;54.022;10.760;2023-04-05T10:05:18;102314.31;;;12.15;46.52
30516;BME280;17297;54.022;10.760;2023-04-05T10:07:47;102307.91;;;12.16;46.71
30516;BME280;17297;54.022;10.760;2023-04-05T10:10:13;102316.81;;;12.17;46.70
30516;BME280;17297;54.022;10.760;2023-04-05T10:12:40;102314.13;;;12.17;46.61
30516;BME280;17297;54.022;10.760;2023-04-05T10:15:07;102309.41;;;12.19;46.72
30516;BME280;17297;54.022;10.760;2023-04-05T10:17:38;102304.53;;;12.22;46.71
30516;BME280;17297;54.022;10.760;2023-04-05T10:20:20;102305.22;;;12.24;46.62
30516;BME280;17297;54.022;10.760;2023-04-05T10:23:04;102306.22;;;12.23;46.69
30516;BME280;17297;54.022;10.760;2023-04-05T10:28:31;102293.59;;;12.32;46.54
30516;BME280;17297;54.022;10.760;2023-04-05T10:33:39;102286.16;;;12.42;46.12
30516;BME280;17297;54.022;10.760;2023-04-05T10:39:30;102277.06;;;12.52;46.02
30516;BME280;17297;54.022;10.760;2023-04-05T10:42:06;102276.88;;;12.61;45.67
30516;BME280;17297;54.022;10.760;2023-04-05T10:44:33;102271.34;;;12.63;45.44
30516;BME280;17297;54.022;10.760;2023-04-05T10:47:04;102265.44;;;12.59;45.65
30516;BME280;17297;54.022;10.760;2023-04-05T10:49:39;102265.91;;;12.55;45.47
30516;BME280;17297;54.022;10.760;2023-04-05T10:52:07;102266.59;;;12.48;45.57
30516;BME280;17297;54.022;10.760;2023-04-05T10:54:34;102255.97;;;12.39;45.56
30516;BME280;17297;54.022;10.760;2023-04-05T10:57:05;102257.66;;;12.32;45.61
30516;BME280;17297;54.022;10.760;2023-04-05T10:59:32;102253.97;;;12.24;45.58
30516;BME280;17297;54.022;10.760;2023-04-05T11:01:58;102253.94;;;12.16;45.39
30516;BME280;17297;54.022;10.760;2023-04-05T11:04:24;102248.53;;;12.08;45.24
30516;BME280;17297;54.022;10.760;2023-04-05T11:09:58;102253.53;;;11.87;45.61
30516;BME280;17297;54.022;10.760;2023-04-05T11:18:08;102250.41;;;11.57;45.88
30516;BME280;17297;54.022;10.760;2023-04-05T11:20:41;102250.88;;;11.52;46.26
30516;BME280;17297;54.022;10.760;2023-04-05T11:23:08;102246.66;;;11.50;46.32
30516;BME280;17297;54.022;10.760;2023-04-05T11:25:37;102254.38;;;11.45;46.34
30516;BME280;17297;54.022;10.760;2023-04-05T11:28:04;102250.16;;;11.42;46.31
30516;BME280;17297;54.022;10.760;2023-04-05T11:30:49;102239.56;;;11.41;46.31
30516;BME280;17297;54.022;10.760;2023-04-05T11:33:55;102246.81;;;11.40;45.99
30516;BME280;17297;54.022;10.760;2023-04-05T11:36:30;102236.66;;;11.34;45.89
30516;BME280;17297;54.022;10.760;2023-04-05T11:39:21;102239.38;;;11.34;46.02
30516;BME280;17297;54.022;10.760;2023-04-05T11:41:53;102228.41;;;11.36;46.07
30516;BME280;17297;54.022;10.760;2023-04-05T11:44:20;102230.78;;;11.39;46.31
30516;BME280;17297;54.022;10.760;2023-04-05T11:46:45;102230.31;;;11.43;45.93
30516;BME280;17297;54.022;10.760;2023-04-05T11:49:11;102222.56;;;11.48;45.88
30516;BME280;17297;54.022;10.760;2023-04-05T11:51:39;102221.22;;;11.52;46.14
30516;BME280;17297;54.022;10.760;2023-04-05T11:54:06;102226.97;;;11.57;46.16
30516;BME280;17297;54.022;10.760;2023-04-05T11:56:32;102224.28;;;11.57;46.44
30516;BME280;17297;54.022;10.760;2023-04-05T11:58:58;102231.84;;;11.54;46.28
30516;BME280;17297;54.022;10.760;2023-04-05T12:01:23;102222.75;;;11.47;46.55
30516;BME280;17297;54.022;10.760;2023-04-05T12:03:53;102223.41;;;11.41;46.51
30516;BME280;17297;54.022;10.760;2023-04-05T12:06:21;102222.00;;;11.37;46.45
30516;BME280;17297;54.022;10.760;2023-04-05T12:08:47;102219.50;;;11.35;46.54
30516;BME280;17297;54.022;10.760;2023-04-05T12:11:26;102214.25;;;11.33;46.51
30516;BME280;17297;54.022;10.760;2023-04-05T12:13:59;102218.13;;;11.31;46.36
30516;BME280;17297;54.022;10.760;2023-04-05T12:16:25;102214.91;;;11.27;46.23
30516;BME280;17297;54.022;10.760;2023-04-05T12:18:55;102214.56;;;11.22;45.97
30516;BME280;17297;54.022;10.760;2023-04-05T12:21:22;102207.47;;;11.21;45.91
30516;BME280;17297;54.022;10.760;2023-04-05T12:23:48;102208.09;;;11.15;45.80
30516;BME280;17297;54.022;10.760;2023-04-05T12:26:14;102204.38;;;11.08;45.99
30516;BME280;17297;54.022;10.760;2023-04-05T12:28:57;102201.97;;;10.97;45.97
30516;BME280;17297;54.022;10.760;2023-04-05T12:31:45;102200.25;;;10.88;46.11
30516;BME280;17297;54.022;10.760;2023-04-05T12:34:11;102201.72;;;10.82;45.83
30516;BME280;17297;54.022;10.760;2023-04-05T12:36:37;102208.25;;;10.79;45.80
30516;BME280;17297;54.022;10.760;2023-04-05T12:39:08;102206.59;;;10.78;45.66
30516;BME280;17297;54.022;10.760;2023-04-05T12:41:35;102207.09;;;10.82;45.78
30516;BME280;17297;54.022;10.760;2023-04-05T12:44:27;102201.56;;;10.83;45.93
30516;BME280;17297;54.022;10.760;2023-04-05T12:46:59;102208.66;;;10.84;45.54
30516;BME280;17297;54.022;10.760;2023-04-05T12:49:26;102203.72;;;10.80;45.43
30516;BME280;17297;54.022;10.760;2023-04-05T12:51:52;102205.25;;;10.82;45.59
30516;BME280;17297;54.022;10.760;2023-04-05T12:54:21;102197.88;;;10.84;45.35
30516;BME280;17297;54.022;10.760;2023-04-05T12:56:51;102197.56;;;10.88;45.42
30516;BME280;17297;54.022;10.760;2023-04-05T12:59:18;102193.53;;;10.92;45.03
30516;BME280;17297;54.022;10.760;2023-04-05T13:01:43;102189.69;;;10.94;44.95
30516;BME280;17297;54.022;10.760;2023-04-05T13:04:09;102190.34;;;10.96;44.82
30516;BME280;17297;54.022;10.760;2023-04-05T13:06:34;102190.03;;;10.99;44.37
30516;BME280;17297;54.022;10.760;2023-04-05T13:08:59;102184.63;;;10.99;44.68
30516;BME280;17297;54.022;10.760;2023-04-05T13:11:25;102179.94;;;11.01;44.47
30516;BME280;17297;54.022;10.760;2023-04-05T13:13:51;102180.97;;;11.00;43.96
30516;BME280;17297;54.022;10.760;2023-04-05T13:16:16;102183.13;;;10.97;44.12
30516;BME280;17297;54.022;10.760;2023-04-05T13:18:41;102186.16;;;10.94;44.07
30516;BME280;17297;54.022;10.760;2023-04-05T13:21:07;102179.91;;;10.93;43.83
30516;BME280;17297;54.022;10.760;2023-04-05T13:23:34;102183.13;;;10.97;43.74
30516;BME280;17297;54.022;10.760;2023-04-05T13:26:00;102176.56;;;10.99;43.54
30516;BME280;17297;54.022;10.760;2023-04-05T13:28:25;102181.63;;;11.02;43.78
30516;BME280;17297;54.022;10.760;2023-04-05T13:30:51;102181.63;;;11.02;43.61